Time;durP1;ratioP1;P1;durP2;ratioP2;P2;SDS_P1;SDS_P2;PMS_P1;PMS_P2;Temp;Humidity;BMP_temperature;BMP_pressure;BME280_temperature;BME280_humidity;BME280_pressure;Samples;Min_cycle;Max_cycle;Signal;HPM_P1;HPM_P2
2022/05/28 00:02:14;;;;;;;5.63;2.20;;;9.60;99.90;;;;;;4963054;28;20550;-69
2022/05/28 00:05:05;;;;;;;7.60;2.40;;;9.50;99.90;;;;;;4961750;28;20601;-69
2022/05/28 00:07:54;;;;;;;9.00;2.20;;;9.50;99.90;;;;;;4962377;28;20877;-69
2022/05/28 00:10:46;;;;;;;4.13;2.13;;;9.60;99.90;;;;;;4962402;28;20486;-69
2022/05/28 00:13:34;;;;;;;10.27;2.80;;;9.50;99.90;;;;;;4960714;28;20625;-69
2022/05/28 00:16:25;;;;;;;7.03;2.40;;;9.50;99.90;;;;;;4962389;28;20605;-69
2022/05/28 00:19:13;;;;;;;4.53;1.70;;;9.50;99.90;;;;;;4955522;28;20470;-69
2022/05/28 00:22:04;;;;;;;3.83;1.80;;;9.50;99.90;;;;;;4955201;28;20473;-69
2022/05/28 00:24:53;;;;;;;6.83;1.90;;;9.50;99.90;;;;;;4962227;28;20461;-69
2022/05/28 00:27:42;;;;;;;4.70;2.03;;;9.40;99.90;;;;;;4961459;28;20484;-69
2022/05/28 00:30:30;;;;;;;3.80;1.67;;;9.40;99.90;;;;;;4961020;28;20570;-70
2022/05/28 00:33:20;;;;;;;4.20;2.00;;;9.40;99.90;;;;;;4960196;28;20597;-70
2022/05/28 00:36:10;;;;;;;2.67;1.80;;;9.30;99.90;;;;;;4961600;28;20570;-69
2022/05/28 00:38:59;;;;;;;4.70;2.20;;;9.30;99.90;;;;;;4962931;28;20560;-69
2022/05/28 00:41:48;;;;;;;4.63;1.77;;;9.20;99.90;;;;;;4960004;28;20553;-69
2022/05/28 00:44:36;;;;;;;3.87;1.80;;;9.10;99.90;;;;;;4962900;28;20462;-70
2022/05/28 00:47:28;;;;;;;5.90;1.83;;;9.10;99.90;;;;;;4961746;28;20870;-69
2022/05/28 00:50:20;;;;;;;5.63;2.07;;;9.00;99.90;;;;;;4954760;28;20538;-69
2022/05/28 00:53:09;;;;;;;5.33;1.80;;;8.90;99.90;;;;;;4957897;28;20474;-70
2022/05/28 00:55:57;;;;;;;8.00;2.70;;;8.90;99.90;;;;;;4961520;28;20533;-69
2022/05/28 00:58:48;;;;;;;4.27;2.20;;;9.00;99.90;;;;;;4961130;28;21025;-69
2022/05/28 01:01:41;;;;;;;3.70;2.20;;;8.90;99.90;;;;;;4960983;28;20488;-69
2022/05/28 01:04:41;;;;;;;4.43;1.90;;;8.80;99.90;;;;;;4961566;28;20521;-69
2022/05/28 01:07:41;;;;;;;4.27;1.70;;;8.90;99.90;;;;;;4960494;28;20561;-69
2022/05/28 01:10:38;;;;;;;4.43;2.80;;;8.80;99.90;;;;;;4961151;28;20478;-69
2022/05/28 01:13:31;;;;;;;3.80;1.77;;;8.80;99.90;;;;;;4960475;28;20469;-69
2022/05/28 01:16:24;;;;;;;4.87;2.10;;;8.70;99.90;;;;;;4963487;28;20557;-69
2022/05/28 01:19:27;;;;;;;5.80;2.17;;;8.60;99.90;;;;;;4959748;28;20451;-69
2022/05/28 01:22:23;;;;;;;2.87;1.77;;;8.60;99.90;;;;;;4957950;28;20482;-69
2022/05/28 01:25:21;;;;;;;4.07;1.60;;;8.60;99.90;;;;;;4961801;28;20541;-69
2022/05/28 01:28:19;;;;;;;3.63;1.90;;;8.60;99.90;;;;;;4962108;28;20458;-68
2022/05/28 01:31:09;;;;;;;6.37;2.03;;;8.60;99.90;;;;;;4960602;28;20495;-69
2022/05/28 01:34:02;;;;;;;5.90;2.40;;;8.60;99.90;;;;;;4960063;28;20562;-69
2022/05/28 01:36:51;;;;;;;4.17;1.77;;;8.70;99.90;;;;;;4961034;28;20565;-70
2022/05/28 01:39:41;;;;;;;6.53;2.00;;;8.70;99.90;;;;;;4960949;28;20454;-70
2022/05/28 01:42:33;;;;;;;1.90;1.67;;;8.60;99.90;;;;;;4956909;28;20576;-70
2022/05/28 01:45:29;;;;;;;3.93;1.80;;;8.60;99.90;;;;;;4960360;28;20505;-69
2022/05/28 01:48:20;;;;;;;3.10;1.50;;;8.70;99.90;;;;;;4960708;28;20466;-68
2022/05/28 01:51:15;;;;;;;3.13;1.63;;;8.70;99.90;;;;;;4958554;28;20540;-69
2022/05/28 01:54:12;;;;;;;2.13;1.20;;;8.60;99.90;;;;;;4956980;28;20955;-70
2022/05/28 01:57:02;;;;;;;2.30;1.63;;;8.60;99.90;;;;;;4960189;28;20565;-69
2022/05/28 01:59:51;;;;;;;5.43;1.73;;;8.50;99.90;;;;;;4958090;28;20459;-70
2022/05/28 02:02:43;;;;;;;3.73;1.70;;;8.50;99.90;;;;;;4960992;28;21053;-69
2022/05/28 02:05:31;;;;;;;3.37;1.50;;;8.50;99.90;;;;;;4958333;28;20466;-69
2022/05/28 02:08:22;;;;;;;2.83;1.73;;;8.50;99.90;;;;;;4959828;28;20563;-69
2022/05/28 02:11:15;;;;;;;5.33;1.63;;;8.50;99.90;;;;;;4960977;28;20537;-69
2022/05/28 02:14:16;;;;;;;3.30;1.80;;;8.60;99.90;;;;;;4954773;28;20536;-69
2022/05/28 02:17:16;;;;;;;2.70;1.20;;;8.50;99.90;;;;;;4956857;28;20474;-69
2022/05/28 02:20:13;;;;;;;3.13;1.43;;;8.50;99.90;;;;;;4958903;28;21062;-70
2022/05/28 02:23:30;;;;;;;2.07;1.20;;;8.50;99.90;;;;;;4956254;28;20478;-69
2022/05/28 02:26:23;;;;;;;3.07;1.30;;;8.50;99.90;;;;;;4960958;28;20566;-69
2022/05/28 02:29:15;;;;;;;2.80;1.50;;;8.50;99.90;;;;;;4958862;28;20501;-69
2022/05/28 02:32:13;;;;;;;7.23;1.63;;;8.60;99.90;;;;;;4955731;28;20594;-69
2022/05/28 02:35:01;;;;;;;5.43;1.73;;;8.50;99.90;;;;;;4958566;28;20545;-69
2022/05/28 02:37:53;;;;;;;5.40;1.60;;;8.50;99.90;;;;;;4959886;28;20459;-69
2022/05/28 02:40:42;;;;;;;3.67;1.47;;;8.50;99.90;;;;;;4960628;28;20534;-69
2022/05/28 02:43:31;;;;;;;4.60;1.80;;;8.50;99.90;;;;;;4957572;28;20478;-69
2022/05/28 02:46:23;;;;;;;2.23;1.30;;;8.60;99.90;;;;;;4958637;28;20978;-69
2022/05/28 02:49:13;;;;;;;4.03;1.30;;;8.60;99.90;;;;;;4959895;28;21033;-69
2022/05/28 02:52:02;;;;;;;3.33;1.80;;;8.60;99.90;;;;;;4959099;28;21054;-69
2022/05/28 02:54:54;;;;;;;3.07;1.67;;;8.60;99.90;;;;;;4959131;28;20863;-69
2022/05/28 02:57:42;;;;;;;2.77;1.67;;;8.60;99.90;;;;;;4959168;28;20482;-69
2022/05/28 03:00:30;;;;;;;2.70;1.40;;;8.60;99.90;;;;;;4958572;28;20593;-69
2022/05/28 03:03:19;;;;;;;4.33;1.53;;;8.60;99.90;;;;;;4958704;28;20554;-69
2022/05/28 03:06:08;;;;;;;2.20;1.60;;;8.60;99.90;;;;;;4958620;28;20478;-69
2022/05/28 03:09:01;;;;;;;7.50;1.90;;;8.70;99.90;;;;;;4959579;28;20477;-69
2022/05/28 03:11:55;;;;;;;3.50;2.43;;;8.70;99.90;;;;;;4959711;28;20453;-69
2022/05/28 03:14:48;;;;;;;4.47;1.77;;;8.70;99.90;;;;;;4959169;28;20568;-69
2022/05/28 03:17:38;;;;;;;3.00;1.97;;;8.60;99.90;;;;;;4959792;28;20595;-69
2022/05/28 03:20:26;;;;;;;6.73;1.83;;;8.50;99.90;;;;;;4957575;28;20650;-69
2022/05/28 03:23:15;;;;;;;5.77;2.50;;;8.50;99.90;;;;;;4951914;28;20566;-69
2022/05/28 03:26:11;;;;;;;6.47;2.60;;;8.50;99.90;;;;;;4959770;28;20640;-70
2022/05/28 03:29:02;;;;;;;3.80;1.77;;;8.60;99.90;;;;;;4958708;28;20637;-69
2022/05/28 03:31:54;;;;;;;4.40;2.07;;;8.60;99.90;;;;;;4957819;28;20586;-69
2022/05/28 03:34:42;;;;;;;4.17;1.90;;;8.60;99.90;;;;;;4957650;28;20964;-69
2022/05/28 03:37:33;;;;;;;6.40;2.30;;;8.60;99.90;;;;;;4957252;28;20471;-69
2022/05/28 03:40:24;;;;;;;5.33;2.17;;;8.70;99.90;;;;;;4958741;28;20509;-69
2022/05/28 03:43:12;;;;;;;6.53;2.30;;;8.70;99.90;;;;;;4958500;28;20546;-69
2022/05/28 03:46:05;;;;;;;6.63;2.10;;;8.70;99.90;;;;;;4955207;28;20526;-69
2022/05/28 03:49:00;;;;;;;4.13;1.70;;;8.70;99.90;;;;;;4959151;28;20966;-69
2022/05/28 03:51:50;;;;;;;6.27;2.40;;;8.70;99.90;;;;;;4958231;28;20513;-70
2022/05/28 03:54:43;;;;;;;4.60;2.27;;;8.70;99.90;;;;;;4959006;28;20438;-69
2022/05/28 03:57:33;;;;;;;9.20;2.77;;;8.80;99.90;;;;;;4958714;28;20486;-70
2022/05/28 04:00:23;;;;;;;4.80;1.90;;;8.70;99.90;;;;;;4957738;28;20573;-69
2022/05/28 04:03:12;;;;;;;8.03;2.20;;;8.70;99.90;;;;;;4959781;28;20901;-69
2022/05/28 04:06:04;;;;;;;6.40;2.10;;;8.70;99.90;;;;;;4958696;28;20514;-69
2022/05/28 04:08:55;;;;;;;4.03;1.93;;;8.80;99.90;;;;;;4958764;28;20463;-69
2022/05/28 04:11:44;;;;;;;3.77;1.90;;;8.90;99.90;;;;;;4958753;28;20542;-69
2022/05/28 04:14:32;;;;;;;6.97;2.10;;;8.90;99.90;;;;;;4958197;28;20517;-69
2022/05/28 04:17:20;;;;;;;9.37;2.30;;;9.00;99.90;;;;;;4958064;28;20512;-69
2022/05/28 04:20:13;;;;;;;6.33;2.40;;;9.00;99.90;;;;;;4959144;28;20521;-70
2022/05/28 04:23:01;;;;;;;4.90;1.90;;;9.10;99.90;;;;;;4954462;28;20478;-70
2022/05/28 04:25:49;;;;;;;8.07;2.40;;;9.20;99.90;;;;;;4958441;28;20567;-69
2022/05/28 04:28:39;;;;;;;5.23;2.00;;;9.20;99.90;;;;;;4958536;28;20486;-69
2022/05/28 04:31:29;;;;;;;7.00;2.40;;;9.20;99.90;;;;;;4955689;28;20569;-69
2022/05/28 04:34:17;;;;;;;6.47;2.83;;;9.20;99.90;;;;;;4956619;28;20577;-69
2022/05/28 04:37:08;;;;;;;3.63;2.60;;;9.20;99.90;;;;;;4956802;28;20519;-69
2022/05/28 04:39:58;;;;;;;5.67;2.20;;;9.20;99.90;;;;;;4959695;28;20541;-69
2022/05/28 04:42:48;;;;;;;8.83;2.80;;;9.40;99.90;;;;;;4956078;28;20997;-69
2022/05/28 04:45:37;;;;;;;10.27;2.90;;;9.50;99.90;;;;;;4957703;28;20514;-69
2022/05/28 04:48:28;;;;;;;8.50;3.00;;;9.40;99.90;;;;;;4961850;28;20992;-69
2022/05/28 04:51:19;;;;;;;6.43;2.47;;;9.40;99.90;;;;;;4959221;28;20509;-69
2022/05/28 04:54:10;;;;;;;6.17;2.87;;;9.40;99.90;;;;;;4962035;28;20470;-69
2022/05/28 04:56:59;;;;;;;5.30;2.40;;;9.50;99.90;;;;;;4962159;28;20842;-69
2022/05/28 04:59:47;;;;;;;10.97;3.17;;;9.50;99.90;;;;;;4961297;28;20916;-69
2022/05/28 05:02:38;;;;;;;11.23;3.23;;;9.50;99.90;;;;;;4962834;28;20536;-69
2022/05/28 05:05:30;;;;;;;7.63;2.73;;;9.60;99.90;;;;;;4962656;28;20533;-69
2022/05/28 05:08:28;;;;;;;10.60;3.87;;;9.70;99.90;;;;;;4962970;28;20986;-69
2022/05/28 05:11:20;;;;;;;5.53;2.90;;;9.60;99.90;;;;;;4961866;28;20455;-69
2022/05/28 05:14:08;;;;;;;6.93;2.70;;;9.70;99.90;;;;;;4961258;28;20518;-69
2022/05/28 05:16:59;;;;;;;5.27;2.03;;;9.70;99.90;;;;;;4962408;28;20564;-69
2022/05/28 05:19:47;;;;;;;4.17;2.20;;;9.80;99.90;;;;;;4961974;28;20459;-69
2022/05/28 05:22:40;;;;;;;5.83;3.13;;;9.90;99.90;;;;;;4961200;28;20539;-69
2022/05/28 05:25:28;;;;;;;5.50;2.43;;;9.80;99.90;;;;;;4962297;28;20479;-69
2022/05/28 05:28:20;;;;;;;7.23;2.77;;;9.80;99.90;;;;;;4963286;28;20462;-69
2022/05/28 05:31:08;;;;;;;11.10;2.77;;;9.80;99.90;;;;;;4962683;28;20541;-69
2022/05/28 05:33:56;;;;;;;8.10;3.00;;;9.90;99.90;;;;;;4961890;28;20541;-69
2022/05/28 05:36:53;;;;;;;5.37;2.50;;;9.90;99.90;;;;;;4962958;28;20582;-69
2022/05/28 05:39:41;;;;;;;4.40;2.40;;;10.00;99.90;;;;;;4961416;28;20593;-69
2022/05/28 05:42:32;;;;;;;8.60;2.80;;;10.10;99.90;;;;;;4961938;28;20502;-69
2022/05/28 05:45:22;;;;;;;6.37;3.23;;;10.10;99.90;;;;;;4961609;28;21029;-69
2022/05/28 05:48:12;;;;;;;6.40;2.50;;;10.20;99.90;;;;;;4963642;28;21030;-72
2022/05/28 05:51:06;;;;;;;8.67;2.90;;;10.30;99.90;;;;;;4962455;28;20892;-69
2022/05/28 05:53:56;;;;;;;7.57;2.63;;;10.30;99.90;;;;;;4962140;28;20486;-69
2022/05/28 05:56:44;;;;;;;7.07;2.70;;;10.40;99.90;;;;;;4961289;28;20634;-69
2022/05/28 05:59:34;;;;;;;5.70;2.30;;;10.40;99.90;;;;;;4963510;28;20941;-69
2022/05/28 06:02:24;;;;;;;6.80;2.40;;;10.40;99.90;;;;;;4960964;28;20926;-69
2022/05/28 06:05:23;;;;;;;11.17;2.80;;;10.40;99.90;;;;;;4952084;28;20609;-69
2022/05/28 06:08:24;;;;;;;8.23;2.60;;;10.50;99.90;;;;;;4962348;28;20453;-69
2022/05/28 06:11:14;;;;;;;5.57;2.20;;;10.50;99.90;;;;;;4961709;28;20907;-69
2022/05/28 06:14:04;;;;;;;7.93;2.23;;;10.60;99.90;;;;;;4959199;28;20470;-70
2022/05/28 06:16:54;;;;;;;3.80;2.13;;;10.60;99.90;;;;;;4960453;28;20514;-69
2022/05/28 06:19:51;;;;;;;4.73;1.90;;;10.70;99.90;;;;;;4961143;28;20458;-69
2022/05/28 06:22:39;;;;;;;8.17;2.50;;;10.90;99.90;;;;;;4957481;28;21072;-70
2022/05/28 06:25:32;;;;;;;5.30;1.83;;;10.90;99.90;;;;;;4960813;28;20966;-70
2022/05/28 06:28:21;;;;;;;5.90;2.00;;;10.90;99.90;;;;;;4960177;28;20878;-70
2022/05/28 06:31:12;;;;;;;6.07;2.50;;;10.90;99.90;;;;;;4961240;28;20594;-70
2022/05/28 06:34:01;;;;;;;3.53;2.30;;;11.00;99.90;;;;;;4962003;28;20541;-70
2022/05/28 06:36:56;;;;;;;5.77;2.60;;;11.00;99.90;;;;;;4961959;28;20633;-70
2022/05/28 06:39:48;;;;;;;4.77;2.50;;;11.00;99.90;;;;;;4962561;28;20537;-70
2022/05/28 06:43:02;;;;;;;6.63;2.40;;;11.00;99.90;;;;;;4961084;28;20483;-70
2022/05/28 06:45:57;;;;;;;10.10;3.00;;;11.10;99.90;;;;;;4961915;28;20844;-70
2022/05/28 06:48:47;;;;;;;5.83;2.43;;;11.10;99.90;;;;;;4960426;28;20893;-70
2022/05/28 06:51:36;;;;;;;6.90;2.80;;;11.10;99.90;;;;;;4958536;28;20450;-70
2022/05/28 06:54:27;;;;;;;4.93;2.60;;;11.10;99.90;;;;;;4960453;28;20604;-69
2022/05/28 06:57:18;;;;;;;7.13;2.60;;;11.20;99.90;;;;;;4962786;28;20545;-70
2022/05/28 07:00:12;;;;;;;7.20;3.13;;;11.30;99.90;;;;;;4960674;28;20549;-70
2022/05/28 07:03:00;;;;;;;11.40;3.40;;;11.40;99.90;;;;;;4961508;28;20462;-70
2022/05/28 07:05:49;;;;;;;6.50;2.50;;;11.50;99.90;;;;;;4960914;28;20451;-70
2022/05/28 07:08:38;;;;;;;7.60;2.70;;;11.50;99.90;;;;;;4960974;28;20469;-71
2022/05/28 07:11:44;;;;;;;9.60;3.00;;;11.60;99.90;;;;;;4959835;28;20536;-70
2022/05/28 07:14:32;;;;;;;5.90;2.67;;;11.60;99.90;;;;;;4959296;28;20581;-72
2022/05/28 07:17:23;;;;;;;10.87;3.20;;;11.60;99.90;;;;;;4961691;28;20486;-70
2022/05/28 07:20:13;;;;;;;5.40;2.40;;;11.60;99.90;;;;;;4959227;28;20483;-70
2022/05/28 07:23:08;;;;;;;8.90;2.67;;;11.70;99.90;;;;;;4960980;28;20506;-71
2022/05/28 07:26:09;;;;;;;6.90;2.10;;;11.80;99.90;;;;;;4959247;28;20617;-70
2022/05/28 07:29:00;;;;;;;4.70;2.27;;;11.90;99.90;;;;;;4957502;28;20505;-70
2022/05/28 07:31:50;;;;;;;9.87;2.93;;;11.90;99.90;;;;;;4958431;28;20538;-70
2022/05/28 07:34:39;;;;;;;8.17;2.90;;;12.00;99.90;;;;;;4960363;28;20975;-70
2022/05/28 07:37:30;;;;;;;9.43;3.10;;;12.00;99.90;;;;;;4956072;28;20581;-70
2022/05/28 07:40:21;;;;;;;5.03;2.57;;;11.90;99.90;;;;;;4959307;28;20614;-70
2022/05/28 07:43:12;;;;;;;6.33;2.60;;;11.70;99.90;;;;;;4960496;28;20479;-70
2022/05/28 07:46:02;;;;;;;7.83;2.73;;;11.60;99.90;;;;;;4961331;28;20474;-70
2022/05/28 07:48:54;;;;;;;7.67;2.83;;;11.60;99.90;;;;;;4957841;28;20450;-70
2022/05/28 07:51:43;;;;;;;6.33;2.80;;;11.60;99.90;;;;;;4960480;28;20470;-70
2022/05/28 07:54:35;;;;;;;6.37;2.53;;;11.60;99.90;;;;;;4960423;28;20450;-70
2022/05/28 07:57:24;;;;;;;10.13;2.80;;;11.60;99.90;;;;;;4961042;28;20502;-70
2022/05/28 08:00:18;;;;;;;7.13;2.80;;;11.60;99.90;;;;;;4955977;28;20463;-71
2022/05/28 08:03:19;;;;;;;7.10;2.70;;;11.60;99.90;;;;;;4959222;28;20478;-70
2022/05/28 08:06:13;;;;;;;7.20;2.20;;;11.70;99.90;;;;;;4957904;28;20467;-72
2022/05/28 08:09:12;;;;;;;8.03;3.03;;;11.80;99.90;;;;;;4954580;28;20523;-70
2022/05/28 08:12:00;;;;;;;8.73;3.33;;;11.90;99.90;;;;;;4959739;28;20557;-70
2022/05/28 08:14:48;;;;;;;6.10;2.43;;;11.90;99.90;;;;;;4960235;28;20479;-70
2022/05/28 08:17:36;;;;;;;9.03;3.20;;;12.00;99.90;;;;;;4957883;28;20557;-70
2022/05/28 08:23:40;;;;;;;6.97;3.10;;;12.10;99.90;;;;;;4961361;28;20555;-70
2022/05/28 08:26:28;;;;;;;11.47;3.90;;;12.10;99.90;;;;;;4963398;28;20494;-70
2022/05/28 08:29:16;;;;;;;7.70;3.27;;;12.10;99.90;;;;;;4963803;28;20533;-70
2022/05/28 08:32:08;;;;;;;6.50;2.80;;;12.10;99.90;;;;;;4956724;28;20609;-70
2022/05/28 08:34:59;;;;;;;4.53;1.73;;;12.10;99.90;;;;;;4965502;28;20461;-70
2022/05/28 08:37:50;;;;;;;4.90;1.97;;;11.90;99.90;;;;;;4964794;28;20560;-71
2022/05/28 08:40:45;;;;;;;8.43;2.70;;;11.70;99.90;;;;;;4964663;28;20549;-70
2022/05/28 08:43:36;;;;;;;8.43;2.67;;;11.60;99.90;;;;;;4965180;28;21062;-70
2022/05/28 08:46:32;;;;;;;7.87;2.70;;;11.70;99.90;;;;;;4964927;28;20917;-72
2022/05/28 08:49:27;;;;;;;5.77;2.70;;;11.70;99.90;;;;;;4962192;28;20620;-70
2022/05/28 08:52:22;;;;;;;10.77;3.47;;;11.80;99.90;;;;;;4962798;28;20955;-70
2022/05/28 08:55:18;;;;;;;6.33;2.60;;;11.90;99.90;;;;;;4963121;28;20533;-70
2022/05/28 08:58:11;;;;;;;6.00;2.20;;;12.10;99.90;;;;;;4964612;28;20558;-70
2022/05/28 09:01:05;;;;;;;6.90;2.60;;;11.90;99.90;;;;;;4963732;28;20850;-70
2022/05/28 09:03:58;;;;;;;4.83;2.10;;;11.60;99.90;;;;;;4959229;28;20573;-70
2022/05/28 09:06:53;;;;;;;7.17;2.50;;;11.50;99.90;;;;;;4964696;28;20466;-70
2022/05/28 09:09:46;;;;;;;4.63;2.20;;;11.40;99.90;;;;;;4963720;28;20962;-70
2022/05/28 09:12:43;;;;;;;7.90;2.37;;;11.40;99.90;;;;;;4962720;28;20485;-71
2022/05/28 09:15:43;;;;;;;5.97;2.53;;;11.50;99.90;;;;;;4961592;28;20553;-70
2022/05/28 09:18:37;;;;;;;7.23;2.53;;;11.60;99.90;;;;;;4962050;28;20793;-71
2022/05/28 09:21:27;;;;;;;5.07;2.50;;;11.70;99.90;;;;;;4962051;28;20547;-70
2022/05/28 09:24:22;;;;;;;6.20;2.50;;;11.80;99.90;;;;;;4963145;28;20477;-70
2022/05/28 09:27:27;;;;;;;10.20;3.17;;;12.00;99.90;;;;;;4964867;28;20532;-70
2022/05/28 09:30:34;;;;;;;9.43;2.30;;;12.10;99.90;;;;;;4961376;28;20490;-70
2022/05/28 09:34:04;;;;;;;5.53;2.27;;;12.20;99.90;;;;;;4973417;28;20524;-70
2022/05/28 09:37:00;;;;;;;6.23;2.47;;;12.20;99.90;;;;;;4898073;29;20576;-71
2022/05/28 09:40:02;;;;;;;10.90;2.87;;;12.10;99.90;;;;;;4934738;28;21046;-71
2022/05/28 09:43:13;;;;;;;5.40;2.93;;;12.10;99.90;;;;;;4962918;28;20478;-71
2022/05/28 09:46:17;;;;;;;6.43;2.93;;;11.90;99.90;;;;;;4962643;28;20482;-70
2022/05/28 09:49:15;;;;;;;8.77;2.40;;;11.80;99.90;;;;;;4964223;28;20447;-70
2022/05/28 09:52:08;;;;;;;6.90;2.87;;;11.70;99.90;;;;;;4955676;28;20517;-70
2022/05/28 09:55:16;;;;;;;6.90;2.70;;;11.80;99.90;;;;;;4963628;28;20536;-70
2022/05/28 09:58:07;;;;;;;11.43;3.20;;;11.90;99.90;;;;;;4961814;28;20527;-70
2022/05/28 10:01:10;;;;;;;7.03;3.00;;;12.00;99.90;;;;;;4961421;28;20447;-70
2022/05/28 10:07:12;;;;;;;5.43;2.13;;;12.30;99.90;;;;;;4960892;28;20863;-70
2022/05/28 10:10:01;;;;;;;6.67;2.37;;;12.40;99.90;;;;;;4963303;28;20613;-71
2022/05/28 10:12:52;;;;;;;7.30;2.10;;;12.50;99.90;;;;;;4960912;28;20475;-70
2022/05/28 10:15:50;;;;;;;6.53;2.80;;;12.60;99.90;;;;;;4957165;28;20963;-70
2022/05/28 10:18:44;;;;;;;5.03;2.00;;;12.70;99.90;;;;;;4960463;28;20482;-71
2022/05/28 10:21:37;;;;;;;4.80;2.07;;;12.70;99.90;;;;;;4960062;28;20454;-70
2022/05/28 10:24:29;;;;;;;6.37;2.10;;;12.70;99.90;;;;;;4962330;28;20489;-70
2022/05/28 10:27:28;;;;;;;7.53;2.00;;;12.60;99.90;;;;;;4962355;28;20564;-71
2022/05/28 10:30:26;;;;;;;3.57;1.80;;;12.60;99.90;;;;;;4963228;28;20530;-70
2022/05/28 10:33:17;;;;;;;8.27;2.77;;;12.70;99.90;;;;;;4957691;28;20489;-70
2022/05/28 10:36:15;;;;;;;9.80;2.53;;;12.70;99.90;;;;;;4959377;28;21121;-73
2022/05/28 10:39:08;;;;;;;6.67;1.93;;;12.70;99.90;;;;;;4962995;28;20490;-70
2022/05/28 10:41:56;;;;;;;4.87;2.43;;;12.70;99.90;;;;;;4959880;28;20462;-70
2022/05/28 10:44:45;;;;;;;8.27;3.10;;;12.70;99.90;;;;;;4960694;28;20938;-70
2022/05/28 10:48:11;;;;;;;8.93;2.50;;;12.70;99.90;;;;;;4961977;28;20526;-71
2022/05/28 10:51:17;;;;;;;6.63;2.30;;;12.70;99.90;;;;;;4955674;28;20494;-70
2022/05/28 10:54:23;;;;;;;6.40;2.60;;;12.70;99.90;;;;;;4961776;28;20991;-71
2022/05/28 10:57:42;;;;;;;7.20;2.20;;;12.80;99.90;;;;;;4961726;28;20478;-71
2022/05/28 11:00:36;;;;;;;7.60;3.00;;;12.90;99.90;;;;;;4956519;28;20476;-70
2022/05/28 11:04:11;;;;;;;6.07;2.70;;;13.00;99.90;;;;;;4960015;28;20580;-70
2022/05/28 11:07:19;;;;;;;9.83;3.07;;;13.20;99.90;;;;;;4952848;28;20855;-68
2022/05/28 11:10:21;;;;;;;8.37;2.17;;;13.50;99.90;;;;;;4961784;28;21018;-69
2022/05/28 11:13:21;;;;;;;9.13;2.67;;;13.70;99.90;;;;;;4958717;28;21041;-69
2022/05/28 11:16:38;;;;;;;5.13;2.10;;;13.80;99.90;;;;;;4955649;28;20568;-69
2022/05/28 11:19:36;;;;;;;8.10;2.20;;;13.70;99.90;;;;;;4954818;28;20617;-69
2022/05/28 11:22:49;;;;;;;10.50;2.80;;;13.50;99.90;;;;;;4959958;28;20477;-71
2022/05/28 11:26:00;;;;;;;6.90;2.80;;;13.30;99.90;;;;;;4958685;28;20450;-69
2022/05/28 11:29:10;;;;;;;9.37;3.07;;;13.20;99.90;;;;;;4960817;28;20458;-71
2022/05/28 11:32:06;;;;;;;6.60;3.17;;;12.70;99.90;;;;;;4960720;28;20510;-71
2022/05/28 11:34:58;;;;;;;7.93;2.60;;;12.50;99.90;;;;;;4954130;28;20967;-69
2022/05/28 11:37:53;;;;;;;9.60;3.00;;;12.40;99.90;;;;;;4959307;28;20478;-69
2022/05/28 11:40:52;;;;;;;7.47;3.10;;;12.40;99.90;;;;;;4960047;28;20534;-69
2022/05/28 11:43:49;;;;;;;8.40;3.60;;;12.20;99.90;;;;;;4956059;28;20533;-70
2022/05/28 11:46:46;;;;;;;8.60;3.10;;;12.20;99.90;;;;;;4959184;28;20541;-69
2022/05/28 11:52:54;;;;;;;10.90;3.70;;;12.20;99.90;;;;;;4961213;28;20478;-70
2022/05/28 11:55:47;;;;;;;9.20;3.23;;;12.20;99.90;;;;;;4960054;28;20936;-69
2022/05/28 11:58:41;;;;;;;10.30;4.07;;;12.30;99.90;;;;;;4961893;28;20507;-69
2022/05/28 12:01:46;;;;;;;8.67;2.93;;;12.40;99.90;;;;;;4965062;28;21064;-69
2022/05/28 12:04:39;;;;;;;7.33;3.20;;;12.30;99.90;;;;;;4964199;28;20539;-70
2022/05/28 12:07:34;;;;;;;8.83;4.23;;;12.30;99.90;;;;;;4963611;28;20489;-70
2022/05/28 12:10:44;;;;;;;10.53;3.60;;;12.40;99.90;;;;;;4963891;28;20491;-70
2022/05/28 12:13:36;;;;;;;13.03;3.67;;;12.60;99.90;;;;;;4963324;28;20600;-70
2022/05/28 12:16:31;;;;;;;8.93;3.10;;;12.90;99.90;;;;;;4964180;28;20481;-70
2022/05/28 12:19:24;;;;;;;8.67;3.07;;;13.10;99.90;;;;;;4964956;28;20502;-70
2022/05/28 12:22:31;;;;;;;8.23;3.03;;;13.20;99.90;;;;;;4964142;28;20557;-70
2022/05/28 12:25:42;;;;;;;8.60;3.30;;;13.20;99.90;;;;;;4958367;28;20537;-70
2022/05/28 12:28:49;;;;;;;6.07;2.57;;;13.10;99.90;;;;;;4965339;28;20464;-70
2022/05/28 12:31:39;;;;;;;7.07;2.70;;;13.00;99.90;;;;;;4963915;28;20990;-70
2022/05/28 12:34:30;;;;;;;5.57;2.40;;;12.90;99.90;;;;;;4964343;28;20459;-70
2022/05/28 12:37:22;;;;;;;5.10;1.90;;;12.90;99.90;;;;;;4964429;28;20525;-70
2022/05/28 12:40:25;;;;;;;4.30;2.30;;;13.00;99.90;;;;;;4964555;28;21140;-70
2022/05/28 12:43:18;;;;;;;4.03;1.80;;;13.00;99.90;;;;;;4964448;28;20585;-70
2022/05/28 12:46:20;;;;;;;5.40;1.90;;;13.00;99.90;;;;;;4963736;28;20459;-71
2022/05/28 12:49:11;;;;;;;3.43;1.80;;;13.10;99.90;;;;;;4964143;28;20441;-70
2022/05/28 12:52:24;;;;;;;5.37;1.90;;;13.10;99.90;;;;;;4953890;28;20572;-70
2022/05/28 12:55:36;;;;;;;4.03;2.20;;;13.10;99.90;;;;;;4964650;28;20506;-70
2022/05/28 12:58:36;;;;;;;4.87;1.90;;;13.10;99.90;;;;;;4962865;28;20457;-70
2022/05/28 13:01:29;;;;;;;4.90;2.03;;;13.10;99.90;;;;;;4962060;28;20462;-72
2022/05/28 13:04:25;;;;;;;5.67;2.70;;;13.00;99.90;;;;;;4963206;28;20485;-70
2022/05/28 13:07:35;;;;;;;5.93;2.07;;;12.90;99.90;;;;;;4962295;28;20479;-70
2022/05/28 13:10:30;;;;;;;6.30;2.30;;;12.80;99.90;;;;;;4964016;28;20779;-70
2022/05/28 13:13:55;;;;;;;5.00;2.00;;;12.80;99.90;;;;;;4963291;28;20486;-74
2022/05/28 13:17:18;;;;;;;5.20;2.03;;;12.70;99.90;;;;;;4964604;28;20568;-70
2022/05/28 13:20:29;;;;;;;5.70;1.73;;;12.70;99.90;;;;;;4961919;28;20494;-69
2022/05/28 13:23:31;;;;;;;8.40;2.80;;;12.80;99.90;;;;;;4962924;28;20477;-69
2022/05/28 13:26:39;;;;;;;8.23;2.33;;;12.80;99.90;;;;;;4961066;28;20626;-69
2022/05/28 13:29:45;;;;;;;5.60;2.27;;;12.90;99.90;;;;;;4962211;28;20955;-69
2022/05/28 13:32:47;;;;;;;7.67;2.30;;;12.80;99.90;;;;;;4961961;28;20524;-69
2022/05/28 13:35:43;;;;;;;7.23;2.57;;;12.70;99.90;;;;;;4961243;28;20953;-69
2022/05/28 13:38:39;;;;;;;6.47;2.87;;;12.70;99.90;;;;;;4961611;28;20459;-69
2022/05/28 13:41:44;;;;;;;6.90;2.80;;;12.80;99.90;;;;;;4961113;28;20501;-69
2022/05/28 13:44:47;;;;;;;8.03;2.90;;;12.90;99.90;;;;;;4961577;28;20561;-70
2022/05/28 13:47:39;;;;;;;5.40;2.20;;;12.90;99.90;;;;;;4961411;28;20475;-69
2022/05/28 13:50:27;;;;;;;5.80;2.70;;;12.70;99.90;;;;;;4960740;28;20455;-69
2022/05/28 13:53:24;;;;;;;6.10;2.70;;;12.60;99.90;;;;;;4961229;28;21013;-69
2022/05/28 13:56:19;;;;;;;3.87;2.50;;;12.60;99.90;;;;;;4962186;28;20530;-70
2022/05/28 13:59:09;;;;;;;9.60;2.63;;;12.40;99.90;;;;;;4946892;28;20454;-69
2022/05/28 14:01:57;;;;;;;8.70;2.87;;;12.30;99.90;;;;;;4945111;28;20473;-69
2022/05/28 14:04:51;;;;;;;6.97;2.83;;;12.30;99.90;;;;;;4947908;28;20541;-69
2022/05/28 14:07:43;;;;;;;6.80;3.37;;;12.40;99.90;;;;;;4949870;28;20505;-69
2022/05/28 14:10:38;;;;;;;6.83;3.13;;;12.40;99.90;;;;;;4964580;28;20453;-70
2022/05/28 14:13:30;;;;;;;8.17;3.20;;;12.50;99.90;;;;;;4965265;28;21018;-70
2022/05/28 14:16:24;;;;;;;9.63;3.40;;;12.40;99.90;;;;;;4959928;28;20514;-70
2022/05/28 14:19:19;;;;;;;9.10;3.57;;;12.30;99.90;;;;;;4953571;28;20557;-70
2022/05/28 14:22:36;;;;;;;9.17;3.17;;;12.20;99.90;;;;;;4952761;28;20483;-70
2022/05/28 14:25:31;;;;;;;11.40;3.10;;;12.10;99.90;;;;;;4956606;28;20521;-70
2022/05/28 14:28:23;;;;;;;12.70;3.60;;;12.10;99.90;;;;;;4951227;28;20459;-71
2022/05/28 14:31:15;;;;;;;6.90;2.77;;;12.20;99.90;;;;;;4955894;28;20691;-70
2022/05/28 14:34:09;;;;;;;8.40;2.80;;;12.10;99.90;;;;;;4954790;28;20485;-70
2022/05/28 14:37:08;;;;;;;6.00;2.87;;;12.10;99.90;;;;;;4955827;28;20485;-70
2022/05/28 14:40:02;;;;;;;9.77;3.60;;;12.00;99.90;;;;;;4951736;28;20544;-70
2022/05/28 14:42:56;;;;;;;8.93;3.67;;;12.10;99.90;;;;;;4950756;28;20489;-70
2022/05/28 14:45:47;;;;;;;13.33;3.90;;;12.10;99.90;;;;;;4946309;28;20467;-70
2022/05/28 14:48:58;;;;;;;6.97;2.30;;;12.10;99.90;;;;;;4954558;28;21030;-69
2022/05/28 14:51:46;;;;;;;8.33;3.37;;;12.00;99.90;;;;;;4951671;28;21050;-69
2022/05/28 14:54:37;;;;;;;6.80;3.07;;;12.10;99.90;;;;;;4955980;28;20550;-69
2022/05/28 14:57:34;;;;;;;9.03;3.67;;;12.20;99.90;;;;;;4949386;28;20479;-69
2022/05/28 15:00:31;;;;;;;8.03;3.13;;;12.20;99.90;;;;;;4955805;28;20483;-68
2022/05/28 15:03:31;;;;;;;7.83;3.23;;;12.10;99.90;;;;;;4942851;28;20521;-68
2022/05/28 15:06:24;;;;;;;8.27;3.40;;;12.10;99.90;;;;;;4953594;28;20482;-68
2022/05/28 15:09:21;;;;;;;8.13;2.93;;;12.00;99.90;;;;;;4953119;28;20863;-68
2022/05/28 15:12:21;;;;;;;10.73;3.10;;;12.00;99.90;;;;;;4953100;28;20529;-69
2022/05/28 15:15:24;;;;;;;7.10;2.90;;;12.10;99.90;;;;;;4951906;28;21024;-68
2022/05/28 15:18:13;;;;;;;12.50;4.20;;;12.20;99.90;;;;;;4955758;28;20486;-68
2022/05/28 15:21:06;;;;;;;7.47;3.43;;;12.40;99.90;;;;;;4955484;28;20518;-68
2022/05/28 15:23:54;;;;;;;10.03;3.87;;;12.50;99.90;;;;;;4944247;28;20566;-68